createdAt,value
2022-09-25T00:00:18.257Z,6.73
2022-09-25T00:01:22.785Z,6.71
2022-09-25T00:02:24.718Z,6.68
2022-09-25T00:03:29.923Z,6.65
2022-09-25T00:04:32.350Z,6.62
2022-09-25T00:05:39.898Z,6.61
2022-09-25T00:06:42.433Z,6.58
2022-09-25T00:07:46.967Z,6.56
2022-09-25T00:08:48.869Z,6.52
2022-09-25T00:09:53.286Z,6.51
2022-09-25T00:10:55.107Z,6.49
2022-09-25T00:12:01.038Z,6.45
2022-09-25T00:13:02.922Z,6.44
2022-09-25T00:14:07.460Z,6.43
2022-09-25T00:15:09.476Z,6.39
2022-09-25T00:16:14.776Z,6.38
2022-09-25T00:17:16.738Z,6.37
2022-09-25T00:18:42.151Z,6.35
2022-09-25T00:19:53.009Z,6.33
2022-09-25T00:21:01.196Z,6.32
2022-09-25T00:22:03.136Z,6.31
2022-09-25T00:23:07.581Z,6.29
2022-09-25T00:24:10.070Z,6.28
2022-09-25T00:25:16.074Z,6.28
2022-09-25T00:26:17.978Z,6.25
2022-09-25T00:27:22.576Z,6.22
2022-09-25T00:28:24.416Z,6.21
2022-09-25T00:29:31.051Z,6.18
2022-09-25T00:30:32.913Z,6.16
2022-09-25T00:31:37.540Z,6.13
2022-09-25T00:32:39.464Z,6.10
2022-09-25T00:33:43.988Z,6.09
2022-09-25T00:34:45.829Z,6.09
2022-09-25T00:35:50.365Z,6.10
2022-09-25T00:36:52.183Z,6.10
2022-09-25T00:37:56.618Z,6.12
2022-09-25T00:38:58.517Z,6.12
2022-09-25T00:40:03.034Z,6.14
2022-09-25T00:41:05.844Z,6.16
2022-09-25T00:42:10.291Z,6.14
2022-09-25T00:43:15.606Z,6.14
2022-09-25T00:44:38.954Z,6.14
2022-09-25T00:45:41.010Z,6.16
2022-09-25T00:46:45.596Z,6.14
2022-09-25T00:47:50.239Z,6.14
2022-09-25T00:48:56.579Z,6.12
2022-09-25T00:49:58.610Z,6.10
2022-09-25T00:51:03.100Z,6.10
2022-09-25T00:52:07.758Z,6.10
2022-09-25T00:53:13.467Z,6.09
2022-09-25T00:54:18.510Z,6.10
2022-09-25T00:55:24.039Z,6.10
2022-09-25T00:56:25.846Z,6.10
2022-09-25T00:57:31.196Z,6.09
2022-09-25T00:58:33.734Z,6.08
2022-09-25T00:59:39.639Z,6.07
2022-09-25T01:00:41.466Z,6.06
2022-09-25T01:01:46.042Z,6.03
2022-09-25T01:02:53.087Z,6.03
2022-09-25T01:03:58.285Z,6.02
2022-09-25T01:05:01.481Z,6.01
2022-09-25T01:06:06.039Z,6.00
2022-09-25T01:07:09.222Z,5.98
2022-09-25T01:08:15.531Z,5.98
2022-09-25T01:09:17.350Z,5.96
2022-09-25T01:10:22.449Z,5.95
2022-09-25T01:11:26.862Z,5.95
2022-09-25T01:12:28.635Z,5.94
2022-09-25T01:13:33.011Z,5.93
2022-09-25T01:14:34.923Z,5.91
2022-09-25T01:15:41.567Z,5.92
2022-09-25T01:16:43.432Z,5.93
2022-09-25T01:18:05.000Z,5.90
2022-09-25T01:19:06.804Z,5.92
2022-09-25T01:20:15.949Z,5.93
2022-09-25T01:21:40.799Z,5.94
2022-09-25T01:22:57.705Z,5.95
2022-09-25T01:23:59.510Z,5.94
2022-09-25T01:25:06.585Z,5.96
2022-09-25T01:26:11.440Z,5.96
2022-09-25T01:27:29.921Z,5.97
2022-09-25T01:28:50.320Z,5.98
2022-09-25T01:30:03.625Z,6.02
2022-09-25T01:31:09.176Z,6.03
2022-09-25T01:32:25.456Z,6.04
2022-09-25T01:33:35.058Z,6.03
2022-09-25T01:34:42.310Z,6.02
2022-09-25T01:35:46.474Z,6.00
2022-09-25T01:36:51.940Z,5.98
2022-09-25T01:37:55.496Z,5.96
2022-09-25T01:39:00.687Z,5.93
2022-09-25T01:40:19.224Z,5.91
2022-09-25T01:41:26.081Z,5.91
2022-09-25T01:42:32.006Z,5.89
2022-09-25T01:43:56.148Z,5.88
2022-09-25T01:45:00.037Z,5.87
2022-09-25T01:46:05.471Z,5.87
2022-09-25T01:47:11.156Z,5.84
2022-09-25T01:48:16.960Z,5.82
2022-09-25T01:49:18.709Z,5.82
2022-09-25T01:50:46.420Z,5.81
2022-09-25T01:51:52.670Z,5.80
2022-09-25T01:52:57.919Z,5.80
2022-09-25T01:54:00.955Z,5.79
2022-09-25T01:55:20.674Z,5.78
2022-09-25T01:56:32.995Z,5.77
2022-09-25T01:57:39.402Z,5.76
2022-09-25T01:58:42.850Z,5.75
2022-09-25T01:59:52.978Z,5.74
2022-09-25T02:00:56.989Z,5.73
2022-09-25T02:02:02.600Z,5.72
2022-09-25T02:03:16.024Z,5.73
2022-09-25T02:04:22.754Z,5.72
2022-09-25T02:05:29.783Z,5.70
2022-09-25T02:06:34.908Z,5.67
2022-09-25T02:07:38.085Z,5.67
2022-09-25T02:08:44.179Z,5.66
2022-09-25T02:09:53.062Z,5.66
2022-09-25T02:10:58.899Z,5.66
2022-09-25T02:12:01.852Z,5.65
2022-09-25T02:13:11.098Z,5.64
2022-09-25T02:14:15.718Z,5.63
2022-09-25T02:15:21.934Z,5.63
2022-09-25T02:16:26.535Z,5.60
2022-09-25T02:17:44.916Z,5.59
2022-09-25T02:19:01.768Z,5.57
2022-09-25T02:20:18.965Z,5.55
2022-09-25T02:21:23.398Z,5.54
2022-09-25T02:22:26.074Z,5.54
2022-09-25T02:23:33.845Z,5.51
2022-09-25T02:24:59.287Z,5.52
2022-09-25T02:26:14.678Z,5.50
2022-09-25T02:27:16.603Z,5.51
2022-09-25T02:28:21.148Z,5.51
2022-09-25T02:29:23.367Z,5.49
2022-09-25T02:30:28.271Z,5.48
2022-09-25T02:31:32.317Z,5.46
2022-09-25T02:32:36.820Z,5.48
2022-09-25T02:33:38.604Z,5.46
2022-09-25T02:34:43.066Z,5.45
2022-09-25T02:35:44.925Z,5.44
2022-09-25T02:36:49.378Z,5.46
2022-09-25T02:37:51.247Z,5.43
2022-09-25T02:38:56.001Z,5.43
2022-09-25T02:39:58.814Z,5.42
2022-09-25T02:41:08.198Z,5.42
2022-09-25T02:42:28.228Z,5.41
2022-09-25T02:43:32.600Z,5.39
2022-09-25T02:44:52.718Z,5.37
2022-09-25T02:45:57.785Z,5.36
2022-09-25T02:47:14.894Z,5.35
2022-09-25T02:48:25.785Z,5.33
2022-09-25T02:49:27.531Z,5.32
2022-09-25T02:50:31.921Z,5.32
2022-09-25T02:51:38.756Z,5.32
2022-09-25T02:52:55.508Z,5.30
2022-09-25T02:54:00.231Z,5.28
2022-09-25T02:55:22.307Z,5.29
2022-09-25T02:56:33.177Z,5.29
2022-09-25T02:57:48.413Z,5.29
2022-09-25T02:58:51.390Z,5.28
2022-09-25T02:59:56.590Z,5.28
2022-09-25T03:00:58.415Z,5.29
2022-09-25T03:02:02.956Z,5.28
2022-09-25T03:03:04.927Z,5.29
2022-09-25T03:04:09.397Z,5.29
2022-09-25T03:05:11.768Z,5.30
2022-09-25T03:06:16.199Z,5.29
2022-09-25T03:07:17.999Z,5.28
2022-09-25T03:08:35.169Z,5.30
2022-09-25T03:09:39.747Z,5.32
2022-09-25T03:10:46.203Z,5.33
2022-09-25T03:12:00.943Z,5.35
2022-09-25T03:13:23.265Z,5.35
2022-09-25T03:14:27.701Z,5.36
2022-09-25T03:15:29.506Z,5.35
2022-09-25T03:16:34.534Z,5.34
2022-09-25T03:17:37.479Z,5.34
2022-09-25T03:18:41.875Z,5.34
2022-09-25T03:19:43.648Z,5.32
2022-09-25T03:20:48.054Z,5.33
2022-09-25T03:21:54.223Z,5.31
2022-09-25T03:22:56.094Z,5.30
2022-09-25T03:24:00.483Z,5.30
2022-09-25T03:25:02.254Z,5.31
2022-09-25T03:26:07.730Z,5.30
2022-09-25T03:27:09.636Z,5.30
2022-09-25T03:28:14.327Z,5.29
2022-09-25T03:29:17.459Z,5.30
2022-09-25T03:30:21.857Z,5.29
2022-09-25T03:31:23.765Z,5.28
2022-09-25T03:32:28.199Z,5.26
2022-09-25T03:33:30.671Z,5.26
2022-09-25T03:34:35.074Z,5.24
2022-09-25T03:35:37.463Z,5.18
2022-09-25T03:36:41.888Z,5.22
2022-09-25T03:37:43.754Z,5.23
2022-09-25T03:38:49.314Z,5.22
2022-09-25T03:39:51.094Z,5.21
2022-09-25T03:40:55.613Z,5.21
2022-09-25T03:42:00.063Z,5.19
2022-09-25T03:44:06.971Z,5.21
2022-09-25T03:45:10.058Z,5.21
2022-09-25T03:46:15.031Z,5.22
2022-09-25T03:47:16.847Z,5.20
2022-09-25T03:48:21.796Z,5.19
2022-09-25T03:49:26.158Z,5.19
2022-09-25T03:50:27.950Z,5.19
2022-09-25T03:51:33.614Z,5.19
2022-09-25T03:52:35.403Z,5.18
2022-09-25T03:53:40.218Z,5.19
2022-09-25T03:54:42.082Z,5.19
2022-09-25T03:55:47.008Z,5.19
2022-09-25T03:56:51.562Z,5.19
2022-09-25T03:57:53.354Z,5.17
2022-09-25T03:58:57.845Z,5.17
2022-09-25T04:00:02.181Z,5.17
2022-09-25T04:01:19.015Z,5.15
2022-09-25T04:02:20.872Z,5.13
2022-09-25T04:03:26.794Z,5.10
2022-09-25T04:04:30.145Z,5.10
2022-09-25T04:05:35.062Z,5.08
2022-09-25T04:06:36.832Z,5.06
2022-09-25T04:07:41.298Z,5.04
2022-09-25T04:08:43.087Z,5.04
2022-09-25T04:09:47.510Z,5.02
2022-09-25T04:10:49.307Z,5.02
2022-09-25T04:11:55.376Z,5.00
2022-09-25T04:12:57.326Z,5.01
2022-09-25T04:14:02.095Z,5.01
2022-09-25T04:15:03.991Z,5.02
2022-09-25T04:16:09.257Z,5.02
2022-09-25T04:17:11.623Z,5.04
2022-09-25T04:18:16.018Z,5.06
2022-09-25T04:19:17.805Z,5.08
2022-09-25T04:20:22.382Z,5.09
2022-09-25T04:21:24.196Z,5.10
2022-09-25T04:22:28.563Z,5.13
2022-09-25T04:23:30.528Z,5.14
2022-09-25T04:24:47.346Z,5.16
2022-09-25T04:25:51.842Z,5.19
2022-09-25T04:26:53.825Z,5.19
2022-09-25T04:27:58.559Z,5.21
2022-09-25T04:29:01.520Z,5.22
2022-09-25T04:30:07.202Z,5.23
2022-09-25T04:31:09.094Z,5.25
2022-09-25T04:32:26.056Z,5.25
2022-09-25T04:33:42.896Z,5.27
2022-09-25T04:34:47.262Z,5.31
2022-09-25T04:35:49.456Z,5.33
2022-09-25T04:36:53.888Z,5.35
2022-09-25T04:37:55.667Z,5.36
2022-09-25T04:39:00.099Z,5.39
2022-09-25T04:40:02.027Z,5.42
2022-09-25T04:41:08.203Z,5.45
2022-09-25T04:42:10.012Z,5.49
2022-09-25T04:43:14.505Z,5.52
2022-09-25T04:44:16.290Z,5.56
2022-09-25T04:45:20.641Z,5.60
2022-09-25T04:46:23.042Z,5.64
2022-09-25T04:47:30.143Z,5.67
2022-09-25T04:48:32.391Z,5.71
2022-09-25T04:49:37.593Z,5.74
2022-09-25T04:50:42.394Z,5.79
2022-09-25T04:51:44.172Z,5.82
2022-09-25T04:52:49.933Z,5.86
2022-09-25T04:53:51.963Z,5.91
2022-09-25T04:54:56.387Z,5.94
2022-09-25T04:56:02.097Z,5.97
2022-09-25T04:57:06.503Z,6.02
2022-09-25T04:58:08.364Z,6.04
2022-09-25T04:59:13.001Z,6.07
2022-09-25T05:00:17.217Z,6.11
2022-09-25T05:01:22.237Z,6.14
2022-09-25T05:02:28.136Z,6.20
2022-09-25T05:03:33.496Z,6.25
2022-09-25T05:04:35.378Z,6.31
2022-09-25T05:05:39.770Z,6.36
2022-09-25T05:06:41.886Z,6.43
2022-09-25T05:07:56.308Z,6.51
2022-09-25T05:08:58.260Z,6.58
2022-09-25T05:10:02.626Z,6.64
2022-09-25T05:11:04.463Z,6.65
2022-09-25T05:12:09.315Z,6.79
2022-09-25T05:13:11.266Z,6.86
2022-09-25T05:14:15.693Z,6.94
2022-09-25T05:15:18.032Z,7.01
2022-09-25T05:16:22.850Z,7.08
2022-09-25T05:17:24.677Z,7.15
2022-09-25T05:18:29.078Z,7.21
2022-09-25T05:19:31.157Z,7.28
2022-09-25T05:20:35.606Z,7.34
2022-09-25T05:21:37.454Z,7.41
2022-09-25T05:22:41.899Z,7.46
2022-09-25T05:23:43.710Z,7.51
2022-09-25T05:24:48.118Z,7.57
2022-09-25T05:25:56.720Z,7.66
2022-09-25T05:27:01.183Z,7.73
2022-09-25T05:28:03.341Z,7.80
2022-09-25T05:29:07.901Z,7.86
2022-09-25T05:30:11.321Z,7.92
2022-09-25T05:31:16.737Z,7.98
2022-09-25T05:32:18.977Z,8.02
2022-09-25T05:33:23.704Z,8.09
2022-09-25T05:34:25.472Z,8.14
2022-09-25T05:35:30.886Z,8.21
2022-09-25T05:36:33.411Z,8.25
2022-09-25T05:37:37.831Z,8.33
2022-09-25T05:38:40.102Z,8.41
2022-09-25T05:39:44.514Z,8.45
2022-09-25T05:40:46.362Z,8.52
2022-09-25T05:41:50.829Z,8.60
2022-09-25T05:42:53.095Z,8.66
2022-09-25T05:43:58.175Z,8.74
2022-09-25T05:45:04.910Z,8.79
2022-09-25T05:46:12.271Z,8.87
2022-09-25T05:47:14.231Z,8.93
2022-09-25T05:48:18.663Z,8.99
2022-09-25T05:49:20.584Z,9.07
2022-09-25T05:50:25.397Z,9.15
2022-09-25T05:51:27.189Z,9.22
2022-09-25T05:52:31.580Z,9.29
2022-09-25T05:53:36.252Z,9.36
2022-09-25T05:54:38.098Z,9.36
2022-09-25T05:55:42.583Z,9.50
2022-09-25T05:56:44.383Z,9.57
2022-09-25T05:57:48.789Z,9.62
2022-09-25T05:58:51.002Z,9.72
2022-09-25T05:59:55.402Z,9.80
2022-09-25T06:01:03.268Z,9.85
2022-09-25T06:02:05.170Z,9.97
2022-09-25T06:03:11.061Z,10.08
2022-09-25T06:04:15.588Z,10.17
2022-09-25T06:05:17.466Z,10.27
2022-09-25T06:06:26.707Z,10.35
2022-09-25T06:07:29.412Z,10.45
2022-09-25T06:08:35.688Z,10.53
2022-09-25T06:09:37.573Z,10.59
2022-09-25T06:10:42.515Z,10.65
2022-09-25T06:11:47.670Z,10.71
2022-09-25T06:12:49.503Z,10.77
2022-09-25T06:13:54.705Z,10.81
2022-09-25T06:14:56.654Z,10.84
2022-09-25T06:16:01.077Z,10.87
2022-09-25T06:17:03.055Z,10.90
2022-09-25T06:18:10.961Z,10.92
2022-09-25T06:19:12.769Z,10.97
2022-09-25T06:20:17.223Z,11.00
2022-09-25T06:21:19.122Z,11.05
2022-09-25T06:22:23.522Z,11.09
2022-09-25T06:23:25.298Z,11.13
2022-09-25T06:24:29.695Z,11.17
2022-09-25T06:25:32.672Z,11.22
2022-09-25T06:26:37.580Z,11.25
2022-09-25T06:27:39.408Z,11.29
2022-09-25T06:28:43.802Z,11.34
2022-09-25T06:29:45.743Z,11.38
2022-09-25T06:30:50.168Z,11.43
2022-09-25T06:31:52.214Z,11.49
2022-09-25T06:33:02.912Z,11.54
2022-09-25T06:34:05.351Z,11.60
2022-09-25T06:35:10.197Z,11.65
2022-09-25T06:36:12.008Z,11.71
2022-09-25T06:37:16.431Z,11.76
2022-09-25T06:38:18.231Z,11.80
2022-09-25T06:39:22.721Z,11.84
2022-09-25T06:40:27.262Z,11.88
2022-09-25T06:41:32.498Z,11.93
2022-09-25T06:42:37.388Z,11.99
2022-09-25T06:43:41.904Z,12.04
2022-09-25T06:44:44.196Z,12.09
2022-09-25T06:45:48.951Z,12.13
2022-09-25T06:46:51.131Z,12.18
2022-09-25T06:47:57.902Z,12.23
2022-09-25T06:49:02.292Z,12.29
2022-09-25T06:50:04.322Z,12.33
2022-09-25T06:51:08.821Z,12.37
2022-09-25T06:52:10.887Z,12.41
2022-09-25T06:53:15.802Z,12.44
2022-09-25T06:54:17.860Z,12.48
2022-09-25T06:55:22.243Z,12.53
2022-09-25T06:56:26.843Z,12.56
2022-09-25T06:57:28.912Z,12.62
2022-09-25T06:58:33.312Z,12.67
2022-09-25T06:59:35.170Z,12.73
2022-09-25T07:00:39.559Z,12.80
2022-09-25T07:01:41.389Z,12.83
2022-09-25T07:02:58.474Z,12.86
2022-09-25T07:04:04.458Z,12.92
2022-09-25T07:05:06.427Z,12.94
2022-09-25T07:06:11.549Z,12.97
2022-09-25T07:07:13.895Z,13.01
2022-09-25T07:08:21.144Z,13.07
2022-09-25T07:09:25.912Z,13.12
2022-09-25T07:10:27.694Z,13.15
2022-09-25T07:11:32.357Z,13.22
2022-09-25T07:12:34.569Z,13.28
2022-09-25T07:13:39.800Z,13.33
2022-09-25T07:14:43.870Z,13.36
2022-09-25T07:15:55.137Z,13.38
2022-09-25T07:16:56.943Z,13.43
2022-09-25T07:18:01.341Z,13.44
2022-09-25T07:19:05.895Z,13.43
2022-09-25T07:20:08.323Z,13.47
2022-09-25T07:21:14.177Z,13.50
2022-09-25T07:22:16.153Z,13.53
2022-09-25T07:23:21.663Z,13.56
2022-09-25T07:24:23.451Z,13.58
2022-09-25T07:25:27.815Z,13.60
2022-09-25T07:26:34.647Z,13.64
2022-09-25T07:27:36.619Z,13.68
2022-09-25T07:28:41.395Z,13.69
2022-09-25T07:29:43.299Z,13.75
2022-09-25T07:30:47.984Z,13.80
2022-09-25T07:31:52.387Z,13.87
2022-09-25T07:32:59.180Z,13.92
2022-09-25T07:34:09.446Z,13.99
2022-09-25T07:35:11.522Z,14.03
2022-09-25T07:36:16.006Z,14.12
2022-09-25T07:37:18.203Z,14.17
2022-09-25T07:38:23.380Z,14.24
2022-09-25T07:39:27.835Z,14.30
2022-09-25T07:40:33.924Z,14.36
2022-09-25T07:41:39.050Z,14.43
2022-09-25T07:42:41.748Z,14.49
2022-09-25T07:43:46.178Z,14.57
2022-09-25T07:44:48.959Z,14.62
2022-09-25T07:45:54.879Z,14.67
2022-09-25T07:46:56.717Z,14.71
2022-09-25T07:48:01.506Z,14.77
2022-09-25T07:49:05.989Z,14.84
2022-09-25T07:50:10.937Z,14.88
2022-09-25T07:51:19.134Z,14.92
2022-09-25T07:52:21.491Z,14.98
2022-09-25T07:53:25.853Z,15.04
2022-09-25T07:54:30.278Z,15.09
2022-09-25T07:55:34.751Z,15.11
2022-09-25T07:56:38.406Z,15.16
2022-09-25T07:57:44.073Z,15.18
2022-09-25T07:58:45.882Z,15.24
2022-09-25T07:59:50.717Z,15.28
2022-09-25T08:00:55.788Z,15.33
2022-09-25T08:01:58.356Z,15.37
2022-09-25T08:03:02.837Z,15.40
2022-09-25T08:04:04.731Z,15.44
2022-09-25T08:05:09.503Z,15.50
2022-09-25T08:06:12.991Z,15.53
2022-09-25T08:07:17.390Z,15.56
2022-09-25T08:08:22.225Z,15.61
2022-09-25T08:09:24.105Z,15.65
2022-09-25T08:10:28.474Z,15.71
2022-09-25T08:11:31.311Z,15.77
2022-09-25T08:12:35.719Z,15.83
2022-09-25T08:13:38.480Z,15.90
2022-09-25T08:14:42.931Z,15.93
2022-09-25T08:15:44.841Z,15.98
2022-09-25T08:16:49.257Z,16.03
2022-09-25T08:17:51.488Z,16.08
2022-09-25T08:18:55.879Z,16.13
2022-09-25T08:19:58.251Z,16.19
2022-09-25T08:21:05.858Z,16.23
2022-09-25T08:22:07.648Z,16.29
2022-09-25T08:23:12.466Z,16.32
2022-09-25T08:24:14.435Z,16.36
2022-09-25T08:25:18.861Z,16.38
2022-09-25T08:26:21.270Z,16.39
2022-09-25T08:27:25.781Z,16.42
2022-09-25T08:28:27.936Z,16.46
2022-09-25T08:29:32.463Z,16.50
2022-09-25T08:30:34.718Z,16.53
2022-09-25T08:31:39.326Z,16.55
2022-09-25T08:32:41.237Z,16.51
2022-09-25T08:33:49.395Z,16.60
2022-09-25T08:34:51.178Z,16.65
2022-09-25T08:36:02.772Z,16.67
2022-09-25T08:37:04.590Z,16.66
2022-09-25T08:38:08.972Z,16.61
2022-09-25T08:39:10.867Z,16.66
2022-09-25T08:40:19.221Z,16.66
2022-09-25T08:41:21.057Z,16.66
2022-09-25T08:42:30.596Z,16.67
2022-09-25T08:43:32.866Z,16.65
2022-09-25T08:44:52.568Z,16.62
2022-09-25T08:46:26.046Z,16.60
2022-09-25T08:47:42.907Z,16.55
2022-09-25T08:49:03.275Z,16.49
2022-09-25T08:50:08.910Z,16.48
2022-09-25T08:51:10.755Z,16.43
2022-09-25T08:52:17.324Z,16.46
2022-09-25T08:53:24.669Z,16.50
2022-09-25T08:54:29.625Z,16.52
2022-09-25T08:55:47.036Z,16.55
2022-09-25T08:57:12.844Z,16.60
2022-09-25T08:58:17.081Z,16.63
2022-09-25T08:59:38.699Z,16.73
2022-09-25T09:00:40.554Z,16.85
2022-09-25T09:01:49.988Z,16.97
2022-09-25T09:02:55.657Z,17.09
2022-09-25T09:04:07.208Z,17.23
2022-09-25T09:05:23.248Z,17.35
2022-09-25T09:06:26.268Z,17.50
2022-09-25T09:07:39.364Z,17.63
2022-09-25T09:08:41.335Z,17.76
2022-09-25T09:09:50.602Z,17.85
2022-09-25T09:10:54.508Z,17.93
2022-09-25T09:12:00.907Z,18.02
2022-09-25T09:13:12.671Z,18.09
2022-09-25T09:14:16.459Z,18.13
2022-09-25T09:15:25.505Z,18.15
2022-09-25T09:16:27.315Z,18.18
2022-09-25T09:17:32.435Z,18.21
2022-09-25T09:18:37.225Z,18.23
2022-09-25T09:19:41.610Z,18.22
2022-09-25T09:20:46.024Z,18.21
2022-09-25T09:21:57.479Z,18.21
2022-09-25T09:22:59.337Z,18.19
2022-09-25T09:24:09.451Z,18.17
2022-09-25T09:25:32.579Z,18.16
2022-09-25T09:26:37.290Z,18.12
2022-09-25T09:27:42.618Z,18.11
2022-09-25T09:29:05.702Z,18.08
2022-09-25T09:30:16.961Z,18.05
2022-09-25T09:31:22.154Z,18.03
2022-09-25T09:32:32.790Z,18.00
2022-09-25T09:33:35.175Z,17.98
2022-09-25T09:36:14.095Z,17.92
2022-09-25T09:37:16.155Z,17.92
2022-09-25T09:38:32.335Z,17.92
2022-09-25T09:39:59.610Z,17.93
2022-09-25T09:41:22.871Z,17.88
2022-09-25T09:43:00.109Z,17.90
2022-09-25T09:44:04.818Z,17.88
2022-09-25T09:45:19.670Z,17.87
2022-09-25T09:46:27.290Z,17.89
2022-09-25T09:47:39.493Z,17.87
2022-09-25T09:48:44.434Z,17.88
2022-09-25T09:50:07.973Z,17.90
2022-09-25T09:51:14.092Z,17.90
2022-09-25T09:52:44.709Z,17.92
2022-09-25T09:54:00.322Z,17.93
2022-09-25T09:55:17.351Z,17.97
2022-09-25T09:56:22.996Z,18.02
2022-09-25T09:57:25.907Z,18.04
2022-09-25T09:58:48.725Z,18.08
2022-09-25T10:00:00.622Z,18.13
2022-09-25T10:02:48.921Z,18.17
2022-09-25T10:03:54.303Z,18.16
2022-09-25T10:04:59.602Z,18.18
2022-09-25T10:06:05.323Z,18.21
2022-09-25T10:07:09.107Z,18.24
2022-09-25T10:08:13.548Z,18.29
2022-09-25T10:09:15.957Z,18.30
2022-09-25T10:10:20.958Z,18.32
2022-09-25T10:11:22.727Z,18.36
2022-09-25T10:12:34.250Z,18.35
2022-09-25T10:13:38.736Z,18.35
2022-09-25T10:14:45.247Z,18.34
2022-09-25T10:15:52.413Z,18.36
2022-09-25T10:16:56.880Z,18.39
2022-09-25T10:18:02.062Z,18.42
2022-09-25T10:19:10.183Z,18.45
2022-09-25T10:20:16.306Z,18.49
2022-09-25T10:21:21.842Z,18.52
2022-09-25T10:22:28.202Z,18.55
2022-09-25T10:23:40.762Z,18.58
2022-09-25T10:24:49.880Z,18.62
2022-09-25T10:25:56.242Z,18.63
2022-09-25T10:26:58.213Z,18.65
2022-09-25T10:28:02.620Z,18.69
2022-09-25T10:29:13.223Z,18.75
2022-09-25T10:30:15.051Z,18.77
2022-09-25T10:31:19.917Z,18.79
2022-09-25T10:32:21.806Z,18.77
2022-09-25T10:33:27.182Z,18.72
2022-09-25T10:34:29.778Z,18.75
2022-09-25T10:35:56.300Z,18.76
2022-09-25T10:36:58.187Z,18.82
2022-09-25T10:38:03.265Z,18.83
2022-09-25T10:39:39.125Z,18.78
2022-09-25T10:40:31.960Z,18.84
2022-09-25T10:41:44.125Z,18.87
2022-09-25T10:42:46.850Z,18.90
2022-09-25T10:43:54.511Z,18.87
2022-09-25T10:44:58.005Z,18.93
2022-09-25T10:46:38.496Z,18.94
2022-09-25T10:47:55.333Z,18.91
2022-09-25T10:49:22.278Z,18.94
2022-09-25T10:50:24.800Z,18.98
2022-09-25T10:51:29.461Z,18.99
2022-09-25T10:52:44.266Z,19.03
2022-09-25T10:53:49.034Z,19.08
2022-09-25T10:54:52.500Z,19.05
2022-09-25T10:55:59.173Z,19.15
2022-09-25T10:57:03.627Z,19.20
2022-09-25T10:58:07.235Z,19.23
2022-09-25T10:59:21.641Z,19.27
2022-09-25T11:00:24.923Z,19.28
2022-09-25T11:01:38.090Z,19.31
2022-09-25T11:02:41.068Z,19.34
2022-09-25T11:03:48.591Z,19.37
2022-09-25T11:04:51.857Z,19.39
2022-09-25T11:06:00.378Z,19.42
2022-09-25T11:07:07.187Z,19.44
2022-09-25T11:08:09.462Z,19.46
2022-09-25T11:09:20.670Z,19.47
2022-09-25T11:10:23.712Z,19.44
2022-09-25T11:11:30.888Z,19.41
2022-09-25T11:12:32.831Z,19.34
2022-09-25T11:13:40.410Z,19.30
2022-09-25T11:14:55.347Z,19.36
2022-09-25T11:15:58.674Z,19.31
2022-09-25T11:17:06.046Z,19.31
2022-09-25T11:18:09.204Z,19.35
2022-09-25T11:19:15.135Z,19.39
2022-09-25T11:20:17.760Z,19.34
2022-09-25T11:21:35.482Z,19.34
2022-09-25T11:22:39.850Z,19.30
2022-09-25T11:23:43.871Z,19.35
2022-09-25T11:24:51.413Z,19.40
2022-09-25T11:26:09.400Z,19.40
2022-09-25T11:27:25.710Z,19.44
2022-09-25T11:28:31.032Z,19.51
2022-09-25T11:29:44.391Z,19.55
2022-09-25T11:30:48.893Z,19.59
2022-09-25T11:32:06.518Z,19.63
2022-09-25T11:33:16.794Z,19.69
2022-09-25T11:34:21.215Z,19.76
2022-09-25T11:35:37.968Z,19.78
2022-09-25T11:37:11.797Z,19.80
2022-09-25T11:38:16.378Z,19.82
2022-09-25T11:39:38.995Z,19.87
2022-09-25T11:41:02.955Z,19.91
2022-09-25T11:42:30.601Z,19.97
2022-09-25T11:43:32.408Z,20.03
2022-09-25T11:44:45.058Z,20.09
2022-09-25T11:45:51.931Z,20.17
2022-09-25T11:47:09.350Z,20.21
2022-09-25T11:48:26.422Z,20.29
2022-09-25T11:49:32.207Z,20.34
2022-09-25T11:51:06.073Z,20.39
2022-09-25T11:52:28.165Z,20.55
2022-09-25T11:53:44.693Z,20.68
2022-09-25T11:54:49.405Z,20.77
2022-09-25T11:56:14.039Z,20.85
2022-09-25T11:57:36.149Z,20.93
2022-09-25T11:58:43.983Z,20.95
2022-09-25T12:00:04.592Z,20.95
2022-09-25T12:01:11.074Z,20.98
2022-09-25T12:02:15.977Z,21.03
2022-09-25T12:03:20.979Z,21.07
2022-09-25T12:04:44.254Z,21.13
2022-09-25T12:06:00.795Z,21.17
2022-09-25T12:07:05.958Z,21.24
2022-09-25T12:08:10.366Z,21.26
2022-09-25T12:09:16.561Z,21.25
2022-09-25T12:10:30.511Z,21.27
2022-09-25T12:11:45.975Z,21.31
2022-09-25T12:12:50.408Z,21.37
2022-09-25T12:14:01.496Z,21.41
2022-09-25T12:15:11.843Z,21.47
2022-09-25T12:16:39.613Z,21.52
2022-09-25T12:17:48.390Z,21.50
2022-09-25T12:18:55.511Z,21.45
2022-09-25T12:20:23.285Z,21.37
2022-09-25T12:21:35.119Z,21.24
2022-09-25T12:22:39.508Z,21.13
2022-09-25T12:23:58.075Z,21.03
2022-09-25T12:25:16.524Z,20.91
2022-09-25T12:26:35.916Z,20.80
2022-09-25T12:27:43.834Z,20.72
2022-09-25T12:29:06.975Z,20.64
2022-09-25T12:30:21.865Z,20.58
2022-09-25T12:31:41.627Z,20.53
2022-09-25T12:33:05.267Z,20.48
2022-09-25T12:34:28.781Z,20.47
2022-09-25T12:35:37.150Z,20.46
2022-09-25T12:36:45.992Z,20.47
2022-09-25T12:37:53.201Z,20.52
2022-09-25T12:39:05.340Z,20.55
2022-09-25T12:40:12.394Z,20.59
2022-09-25T12:41:21.405Z,20.62
2022-09-25T12:42:35.663Z,20.65
2022-09-25T12:43:45.854Z,20.64
2022-09-25T12:44:47.682Z,20.62
2022-09-25T12:45:54.016Z,20.59
2022-09-25T12:47:01.930Z,20.57
2022-09-25T12:48:03.757Z,20.57
2022-09-25T12:49:14.352Z,20.58
2022-09-25T12:50:17.062Z,20.61
2022-09-25T12:51:21.686Z,20.67
2022-09-25T12:52:38.398Z,20.74
2022-09-25T12:53:44.188Z,20.82
2022-09-25T12:54:53.582Z,20.92
2022-09-25T12:56:22.062Z,21.04
2022-09-25T12:57:26.291Z,21.18
2022-09-25T12:58:53.799Z,21.30
2022-09-25T12:59:59.615Z,21.49
2022-09-25T13:01:09.611Z,21.63
2022-09-25T13:02:15.729Z,21.77
2022-09-25T13:03:37.784Z,21.93
2022-09-25T13:04:56.968Z,22.13
2022-09-25T13:06:03.960Z,22.28
2022-09-25T13:07:27.098Z,22.43
2022-09-25T13:08:50.420Z,22.61
2022-09-25T13:09:54.788Z,22.80
2022-09-25T13:11:26.092Z,22.92
2022-09-25T13:12:34.758Z,23.10
2022-09-25T13:13:40.706Z,23.20
2022-09-25T13:14:44.952Z,23.34
2022-09-25T13:16:07.633Z,23.47
2022-09-25T13:17:12.591Z,23.60
2022-09-25T13:18:19.829Z,23.67
2022-09-25T13:19:24.421Z,23.74
2022-09-25T13:20:32.347Z,23.76
2022-09-25T13:21:41.775Z,23.77
2022-09-25T13:22:43.706Z,23.78
2022-09-25T13:23:49.073Z,23.72
2022-09-25T13:24:52.511Z,23.65
2022-09-25T13:26:01.226Z,23.57
2022-09-25T13:27:06.926Z,23.43
2022-09-25T13:28:12.315Z,23.27
2022-09-25T13:29:21.461Z,23.10
2022-09-25T13:30:28.002Z,22.90
2022-09-25T13:31:30.981Z,22.72
2022-09-25T13:32:35.674Z,22.55
2022-09-25T13:33:38.854Z,22.42
2022-09-25T13:34:43.437Z,22.25
2022-09-25T13:35:45.420Z,22.09
2022-09-25T13:36:50.484Z,21.95
2022-09-25T13:37:56.501Z,21.78
2022-09-25T13:39:13.327Z,21.62
2022-09-25T13:40:37.238Z,21.47
2022-09-25T13:41:48.685Z,21.31
2022-09-25T13:42:53.267Z,21.22
2022-09-25T13:44:13.572Z,21.13
2022-09-25T13:45:32.378Z,21.05
2022-09-25T13:46:34.661Z,20.99
2022-09-25T13:47:39.601Z,20.98
2022-09-25T13:48:43.970Z,20.96
2022-09-25T13:49:55.490Z,20.95
2022-09-25T13:51:18.932Z,20.94
2022-09-25T13:52:30.909Z,20.95
2022-09-25T13:53:52.064Z,20.97
2022-09-25T13:55:08.007Z,21.01
2022-09-25T13:56:18.670Z,21.04
2022-09-25T13:57:32.523Z,21.04
2022-09-25T13:58:52.857Z,21.04
2022-09-25T14:00:06.546Z,21.05
2022-09-25T14:01:11.864Z,21.08
2022-09-25T14:02:34.391Z,21.10
2022-09-25T14:03:46.513Z,21.17
2022-09-25T14:04:48.733Z,21.23
2022-09-25T14:05:53.127Z,21.28
2022-09-25T14:06:57.383Z,21.32
2022-09-25T14:08:03.495Z,21.37
2022-09-25T14:09:12.623Z,21.40
2022-09-25T14:10:17.643Z,21.43
2022-09-25T14:11:20.319Z,21.44
2022-09-25T14:12:27.281Z,21.42
2022-09-25T14:13:29.084Z,21.43
2022-09-25T14:14:39.143Z,21.42
2022-09-25T14:15:43.567Z,21.40
2022-09-25T14:16:51.315Z,21.38
2022-09-25T14:17:56.282Z,21.38
2022-09-25T14:18:58.756Z,21.36
2022-09-25T14:20:03.551Z,21.35
2022-09-25T14:21:07.734Z,21.36
2022-09-25T14:22:15.724Z,21.37
2022-09-25T14:23:22.911Z,21.39
2022-09-25T14:24:29.252Z,21.41
2022-09-25T14:25:38.404Z,21.41
2022-09-25T14:26:44.549Z,21.42
2022-09-25T14:27:53.101Z,21.44
2022-09-25T14:28:59.597Z,21.47
2022-09-25T14:30:05.880Z,21.49
2022-09-25T14:31:17.218Z,21.55
2022-09-25T14:32:54.510Z,21.53
2022-09-25T14:34:01.059Z,21.51
2022-09-25T14:35:11.883Z,21.50
2022-09-25T14:36:43.005Z,21.46
2022-09-25T14:37:47.931Z,21.38
2022-09-25T14:39:11.134Z,21.33
2022-09-25T14:40:22.846Z,21.27
2022-09-25T14:41:44.086Z,21.21